sensor_id;sensor_type;location;lat;lon;timestamp;P1;durP1;ratioP1;P2;durP2;ratioP2
4409;SDS011;2218;51.408;7.208;2023-08-07T00:01:37;0.70;;;0.70;;
4409;SDS011;2218;51.408;7.208;2023-08-07T00:04:04;0.80;;;0.73;;
4409;SDS011;2218;51.408;7.208;2023-08-07T00:06:31;0.70;;;0.50;;
4409;SDS011;2218;51.408;7.208;2023-08-07T00:08:58;0.70;;;0.60;;
4409;SDS011;2218;51.408;7.208;2023-08-07T00:11:25;0.70;;;0.50;;
4409;SDS011;2218;51.408;7.208;2023-08-07T00:13:53;1.43;;;0.97;;
4409;SDS011;2218;51.408;7.208;2023-08-07T00:16:20;0.70;;;0.60;;
4409;SDS011;2218;51.408;7.208;2023-08-07T00:18:48;0.70;;;0.60;;
4409;SDS011;2218;51.408;7.208;2023-08-07T00:21:17;0.70;;;0.60;;
4409;SDS011;2218;51.408;7.208;2023-08-07T00:23:44;0.70;;;0.60;;
4409;SDS011;2218;51.408;7.208;2023-08-07T00:26:11;0.70;;;0.63;;
4409;SDS011;2218;51.408;7.208;2023-08-07T00:28:38;0.70;;;0.60;;
4409;SDS011;2218;51.408;7.208;2023-08-07T00:31:05;0.70;;;0.53;;
4409;SDS011;2218;51.408;7.208;2023-08-07T00:33:32;0.70;;;0.60;;
4409;SDS011;2218;51.408;7.208;2023-08-07T00:36:00;0.70;;;0.70;;
4409;SDS011;2218;51.408;7.208;2023-08-07T00:38:27;0.73;;;0.60;;
4409;SDS011;2218;51.408;7.208;2023-08-07T00:40:54;0.77;;;0.63;;
4409;SDS011;2218;51.408;7.208;2023-08-07T00:43:21;0.80;;;0.50;;
4409;SDS011;2218;51.408;7.208;2023-08-07T00:45:49;0.70;;;0.60;;
4409;SDS011;2218;51.408;7.208;2023-08-07T00:48:16;0.70;;;0.50;;
4409;SDS011;2218;51.408;7.208;2023-08-07T00:50:43;0.70;;;0.50;;
4409;SDS011;2218;51.408;7.208;2023-08-07T00:53:16;0.70;;;0.60;;
4409;SDS011;2218;51.408;7.208;2023-08-07T00:55:43;0.70;;;0.60;;
4409;SDS011;2218;51.408;7.208;2023-08-07T00:58:10;0.80;;;0.60;;
4409;SDS011;2218;51.408;7.208;2023-08-07T01:00:38;0.90;;;0.60;;
4409;SDS011;2218;51.408;7.208;2023-08-07T01:03:07;0.70;;;0.60;;
4409;SDS011;2218;51.408;7.208;2023-08-07T01:05:34;0.97;;;0.70;;
4409;SDS011;2218;51.408;7.208;2023-08-07T01:08:01;0.70;;;0.60;;
4409;SDS011;2218;51.408;7.208;2023-08-07T01:10:33;0.70;;;0.60;;
4409;SDS011;2218;51.408;7.208;2023-08-07T01:13:13;0.70;;;0.50;;
4409;SDS011;2218;51.408;7.208;2023-08-07T01:15:52;1.00;;;0.60;;
4409;SDS011;2218;51.408;7.208;2023-08-07T01:18:24;0.70;;;0.57;;
4409;SDS011;2218;51.408;7.208;2023-08-07T01:20:52;0.70;;;0.60;;
4409;SDS011;2218;51.408;7.208;2023-08-07T01:23:21;0.87;;;0.70;;
4409;SDS011;2218;51.408;7.208;2023-08-07T01:25:47;0.77;;;0.60;;
4409;SDS011;2218;51.408;7.208;2023-08-07T01:28:16;1.60;;;0.70;;
4409;SDS011;2218;51.408;7.208;2023-08-07T01:30:54;0.70;;;0.50;;
4409;SDS011;2218;51.408;7.208;2023-08-07T01:33:30;0.77;;;0.60;;
4409;SDS011;2218;51.408;7.208;2023-08-07T01:36:06;0.80;;;0.60;;
4409;SDS011;2218;51.408;7.208;2023-08-07T01:38:37;0.70;;;0.60;;
4409;SDS011;2218;51.408;7.208;2023-08-07T01:41:05;0.70;;;0.60;;
4409;SDS011;2218;51.408;7.208;2023-08-07T01:43:33;0.70;;;0.50;;
4409;SDS011;2218;51.408;7.208;2023-08-07T01:46:00;0.80;;;0.70;;
4409;SDS011;2218;51.408;7.208;2023-08-07T01:48:28;0.70;;;0.63;;
4409;SDS011;2218;51.408;7.208;2023-08-07T01:50:55;0.70;;;0.60;;
4409;SDS011;2218;51.408;7.208;2023-08-07T01:53:22;0.90;;;0.70;;
4409;SDS011;2218;51.408;7.208;2023-08-07T01:55:51;0.70;;;0.60;;
4409;SDS011;2218;51.408;7.208;2023-08-07T01:58:17;1.47;;;0.60;;
4409;SDS011;2218;51.408;7.208;2023-08-07T02:00:45;0.80;;;0.60;;
4409;SDS011;2218;51.408;7.208;2023-08-07T02:03:12;0.70;;;0.50;;
4409;SDS011;2218;51.408;7.208;2023-08-07T02:05:39;0.80;;;0.70;;
4409;SDS011;2218;51.408;7.208;2023-08-07T02:08:05;0.70;;;0.50;;
4409;SDS011;2218;51.408;7.208;2023-08-07T02:10:32;0.70;;;0.60;;
4409;SDS011;2218;51.408;7.208;2023-08-07T02:13:01;0.70;;;0.60;;
4409;SDS011;2218;51.408;7.208;2023-08-07T02:15:28;0.70;;;0.60;;
4409;SDS011;2218;51.408;7.208;2023-08-07T02:17:55;0.73;;;0.70;;
4409;SDS011;2218;51.408;7.208;2023-08-07T02:20:23;0.80;;;0.60;;
4409;SDS011;2218;51.408;7.208;2023-08-07T02:22:50;0.80;;;0.70;;
4409;SDS011;2218;51.408;7.208;2023-08-07T02:25:18;0.70;;;0.63;;
4409;SDS011;2218;51.408;7.208;2023-08-07T02:27:45;0.80;;;0.70;;
4409;SDS011;2218;51.408;7.208;2023-08-07T02:30:13;0.70;;;0.60;;
4409;SDS011;2218;51.408;7.208;2023-08-07T02:32:41;0.80;;;0.63;;
4409;SDS011;2218;51.408;7.208;2023-08-07T02:35:09;0.70;;;0.60;;
4409;SDS011;2218;51.408;7.208;2023-08-07T02:37:37;0.70;;;0.60;;
4409;SDS011;2218;51.408;7.208;2023-08-07T02:40:05;0.80;;;0.60;;
4409;SDS011;2218;51.408;7.208;2023-08-07T02:42:33;0.80;;;0.70;;
4409;SDS011;2218;51.408;7.208;2023-08-07T02:45:00;0.73;;;0.60;;
4409;SDS011;2218;51.408;7.208;2023-08-07T02:47:30;0.80;;;0.80;;
4409;SDS011;2218;51.408;7.208;2023-08-07T02:49:57;0.90;;;0.77;;
4409;SDS011;2218;51.408;7.208;2023-08-07T02:52:24;0.70;;;0.60;;
4409;SDS011;2218;51.408;7.208;2023-08-07T02:54:51;0.80;;;0.60;;
4409;SDS011;2218;51.408;7.208;2023-08-07T02:57:18;0.70;;;0.60;;
4409;SDS011;2218;51.408;7.208;2023-08-07T02:59:45;0.70;;;0.50;;
4409;SDS011;2218;51.408;7.208;2023-08-07T03:02:12;0.80;;;0.60;;
4409;SDS011;2218;51.408;7.208;2023-08-07T03:04:40;0.70;;;0.60;;
4409;SDS011;2218;51.408;7.208;2023-08-07T03:07:07;0.70;;;0.60;;
4409;SDS011;2218;51.408;7.208;2023-08-07T03:09:34;0.70;;;0.53;;
4409;SDS011;2218;51.408;7.208;2023-08-07T03:12:01;0.70;;;0.63;;
4409;SDS011;2218;51.408;7.208;2023-08-07T03:14:29;0.77;;;0.60;;
4409;SDS011;2218;51.408;7.208;2023-08-07T03:16:58;0.80;;;0.70;;
4409;SDS011;2218;51.408;7.208;2023-08-07T03:19:24;0.70;;;0.60;;
4409;SDS011;2218;51.408;7.208;2023-08-07T03:21:53;0.90;;;0.70;;
4409;SDS011;2218;51.408;7.208;2023-08-07T03:24:20;0.80;;;0.57;;
4409;SDS011;2218;51.408;7.208;2023-08-07T03:26:47;0.70;;;0.60;;
4409;SDS011;2218;51.408;7.208;2023-08-07T03:29:14;0.70;;;0.60;;
4409;SDS011;2218;51.408;7.208;2023-08-07T03:31:42;0.80;;;0.70;;
4409;SDS011;2218;51.408;7.208;2023-08-07T03:34:10;0.70;;;0.50;;
4409;SDS011;2218;51.408;7.208;2023-08-07T03:36:37;0.70;;;0.50;;
4409;SDS011;2218;51.408;7.208;2023-08-07T03:39:05;0.77;;;0.70;;
4409;SDS011;2218;51.408;7.208;2023-08-07T03:41:33;0.70;;;0.60;;
4409;SDS011;2218;51.408;7.208;2023-08-07T03:44:00;0.80;;;0.70;;
4409;SDS011;2218;51.408;7.208;2023-08-07T03:46:27;0.80;;;0.50;;
4409;SDS011;2218;51.408;7.208;2023-08-07T03:48:54;0.70;;;0.60;;
4409;SDS011;2218;51.408;7.208;2023-08-07T03:51:21;0.80;;;0.63;;
4409;SDS011;2218;51.408;7.208;2023-08-07T03:53:52;0.80;;;0.70;;
4409;SDS011;2218;51.408;7.208;2023-08-07T03:56:21;0.70;;;0.50;;
4409;SDS011;2218;51.408;7.208;2023-08-07T03:58:48;0.70;;;0.50;;
4409;SDS011;2218;51.408;7.208;2023-08-07T04:01:16;0.70;;;0.60;;
4409;SDS011;2218;51.408;7.208;2023-08-07T04:03:43;0.70;;;0.60;;
4409;SDS011;2218;51.408;7.208;2023-08-07T04:06:13;0.80;;;0.70;;
4409;SDS011;2218;51.408;7.208;2023-08-07T04:08:41;0.70;;;0.63;;
4409;SDS011;2218;51.408;7.208;2023-08-07T04:11:08;0.80;;;0.60;;
4409;SDS011;2218;51.408;7.208;2023-08-07T04:13:37;0.70;;;0.60;;
4409;SDS011;2218;51.408;7.208;2023-08-07T04:16:04;0.70;;;0.50;;
4409;SDS011;2218;51.408;7.208;2023-08-07T04:18:32;0.70;;;0.50;;
4409;SDS011;2218;51.408;7.208;2023-08-07T04:21:01;0.70;;;0.60;;
4409;SDS011;2218;51.408;7.208;2023-08-07T04:23:28;0.70;;;0.60;;
4409;SDS011;2218;51.408;7.208;2023-08-07T04:25:56;0.73;;;0.60;;
4409;SDS011;2218;51.408;7.208;2023-08-07T04:28:23;0.80;;;0.60;;
4409;SDS011;2218;51.408;7.208;2023-08-07T04:30:51;0.97;;;0.80;;
4409;SDS011;2218;51.408;7.208;2023-08-07T04:33:18;0.77;;;0.70;;
4409;SDS011;2218;51.408;7.208;2023-08-07T04:35:47;0.70;;;0.70;;
4409;SDS011;2218;51.408;7.208;2023-08-07T04:38:14;0.90;;;0.70;;
4409;SDS011;2218;51.408;7.208;2023-08-07T04:40:45;0.80;;;0.73;;
4409;SDS011;2218;51.408;7.208;2023-08-07T04:43:12;0.80;;;0.63;;
4409;SDS011;2218;51.408;7.208;2023-08-07T04:45:39;0.80;;;0.67;;
4409;SDS011;2218;51.408;7.208;2023-08-07T04:48:08;0.80;;;0.70;;
4409;SDS011;2218;51.408;7.208;2023-08-07T04:50:35;0.80;;;0.80;;
4409;SDS011;2218;51.408;7.208;2023-08-07T04:53:02;0.83;;;0.83;;
4409;SDS011;2218;51.408;7.208;2023-08-07T04:55:30;0.80;;;0.70;;
4409;SDS011;2218;51.408;7.208;2023-08-07T04:57:57;0.80;;;0.70;;
4409;SDS011;2218;51.408;7.208;2023-08-07T05:00:25;1.00;;;0.77;;
4409;SDS011;2218;51.408;7.208;2023-08-07T05:02:54;0.73;;;0.67;;
4409;SDS011;2218;51.408;7.208;2023-08-07T05:05:22;0.73;;;0.70;;
4409;SDS011;2218;51.408;7.208;2023-08-07T05:07:49;0.90;;;0.60;;
4409;SDS011;2218;51.408;7.208;2023-08-07T05:10:16;0.73;;;0.70;;
4409;SDS011;2218;51.408;7.208;2023-08-07T05:12:44;0.90;;;0.90;;
4409;SDS011;2218;51.408;7.208;2023-08-07T05:15:11;0.83;;;0.83;;
4409;SDS011;2218;51.408;7.208;2023-08-07T05:17:38;0.93;;;0.80;;
4409;SDS011;2218;51.408;7.208;2023-08-07T05:20:05;1.00;;;0.93;;
4409;SDS011;2218;51.408;7.208;2023-08-07T05:22:35;0.90;;;0.90;;
4409;SDS011;2218;51.408;7.208;2023-08-07T05:25:02;1.03;;;0.93;;
4409;SDS011;2218;51.408;7.208;2023-08-07T05:27:30;0.80;;;0.80;;
4409;SDS011;2218;51.408;7.208;2023-08-07T05:29:57;1.00;;;0.97;;
4409;SDS011;2218;51.408;7.208;2023-08-07T05:32:25;0.90;;;0.80;;
4409;SDS011;2218;51.408;7.208;2023-08-07T05:34:53;0.70;;;0.70;;
4409;SDS011;2218;51.408;7.208;2023-08-07T05:37:20;0.80;;;0.80;;
4409;SDS011;2218;51.408;7.208;2023-08-07T05:39:49;1.03;;;1.00;;
4409;SDS011;2218;51.408;7.208;2023-08-07T05:42:16;1.03;;;0.93;;
4409;SDS011;2218;51.408;7.208;2023-08-07T05:44:43;1.00;;;0.90;;
4409;SDS011;2218;51.408;7.208;2023-08-07T05:47:10;0.80;;;0.70;;
4409;SDS011;2218;51.408;7.208;2023-08-07T05:49:36;1.07;;;0.97;;
4409;SDS011;2218;51.408;7.208;2023-08-07T05:52:04;1.20;;;0.80;;
4409;SDS011;2218;51.408;7.208;2023-08-07T05:54:32;2.50;;;0.70;;
4409;SDS011;2218;51.408;7.208;2023-08-07T05:57:01;1.27;;;0.80;;
4409;SDS011;2218;51.408;7.208;2023-08-07T05:59:28;0.80;;;0.70;;
4409;SDS011;2218;51.408;7.208;2023-08-07T06:01:54;0.70;;;0.63;;
4409;SDS011;2218;51.408;7.208;2023-08-07T06:04:21;0.70;;;0.70;;
4409;SDS011;2218;51.408;7.208;2023-08-07T06:06:48;1.63;;;0.80;;
4409;SDS011;2218;51.408;7.208;2023-08-07T06:09:15;6.33;;;1.20;;
4409;SDS011;2218;51.408;7.208;2023-08-07T06:11:42;0.80;;;0.73;;
4409;SDS011;2218;51.408;7.208;2023-08-07T06:14:11;1.00;;;0.80;;
4409;SDS011;2218;51.408;7.208;2023-08-07T06:16:38;0.80;;;0.70;;
4409;SDS011;2218;51.408;7.208;2023-08-07T06:19:05;0.80;;;0.70;;
4409;SDS011;2218;51.408;7.208;2023-08-07T06:21:32;1.47;;;0.83;;
4409;SDS011;2218;51.408;7.208;2023-08-07T06:23:58;1.27;;;0.80;;
4409;SDS011;2218;51.408;7.208;2023-08-07T06:26:25;0.77;;;0.70;;
4409;SDS011;2218;51.408;7.208;2023-08-07T06:28:52;0.80;;;0.80;;
4409;SDS011;2218;51.408;7.208;2023-08-07T06:31:20;0.70;;;0.63;;
4409;SDS011;2218;51.408;7.208;2023-08-07T06:33:49;0.83;;;0.83;;
4409;SDS011;2218;51.408;7.208;2023-08-07T06:36:16;1.10;;;1.00;;
4409;SDS011;2218;51.408;7.208;2023-08-07T06:38:43;0.93;;;0.93;;
4409;SDS011;2218;51.408;7.208;2023-08-07T06:41:10;4.53;;;1.47;;
4409;SDS011;2218;51.408;7.208;2023-08-07T06:43:36;0.97;;;0.80;;
4409;SDS011;2218;51.408;7.208;2023-08-07T06:46:03;0.90;;;0.90;;
4409;SDS011;2218;51.408;7.208;2023-08-07T06:48:32;1.07;;;0.97;;
4409;SDS011;2218;51.408;7.208;2023-08-07T06:50:58;1.30;;;1.20;;
4409;SDS011;2218;51.408;7.208;2023-08-07T06:53:25;1.13;;;1.03;;
4409;SDS011;2218;51.408;7.208;2023-08-07T06:55:52;2.97;;;1.20;;
4409;SDS011;2218;51.408;7.208;2023-08-07T06:58:19;1.20;;;1.10;;
4409;SDS011;2218;51.408;7.208;2023-08-07T07:00:46;2.80;;;1.13;;
4409;SDS011;2218;51.408;7.208;2023-08-07T07:03:14;1.27;;;1.17;;
4409;SDS011;2218;51.408;7.208;2023-08-07T07:05:42;1.57;;;1.47;;
4409;SDS011;2218;51.408;7.208;2023-08-07T07:08:09;1.50;;;1.40;;
4409;SDS011;2218;51.408;7.208;2023-08-07T07:10:36;1.23;;;1.13;;
4409;SDS011;2218;51.408;7.208;2023-08-07T07:13:03;1.70;;;1.10;;
4409;SDS011;2218;51.408;7.208;2023-08-07T07:15:30;1.10;;;1.03;;
4409;SDS011;2218;51.408;7.208;2023-08-07T07:17:57;1.83;;;1.10;;
4409;SDS011;2218;51.408;7.208;2023-08-07T07:20:24;1.73;;;1.20;;
4409;SDS011;2218;51.408;7.208;2023-08-07T07:22:54;2.20;;;1.27;;
4409;SDS011;2218;51.408;7.208;2023-08-07T07:25:20;1.40;;;1.30;;
4409;SDS011;2218;51.408;7.208;2023-08-07T07:27:47;1.57;;;1.47;;
4409;SDS011;2218;51.408;7.208;2023-08-07T07:30:14;1.50;;;1.40;;
4409;SDS011;2218;51.408;7.208;2023-08-07T07:32:41;1.30;;;1.20;;
4409;SDS011;2218;51.408;7.208;2023-08-07T07:35:08;1.17;;;1.10;;
4409;SDS011;2218;51.408;7.208;2023-08-07T07:37:35;1.93;;;1.00;;
4409;SDS011;2218;51.408;7.208;2023-08-07T07:40:03;3.30;;;1.60;;
4409;SDS011;2218;51.408;7.208;2023-08-07T07:42:32;1.10;;;1.00;;
4409;SDS011;2218;51.408;7.208;2023-08-07T07:44:59;1.33;;;1.23;;
4409;SDS011;2218;51.408;7.208;2023-08-07T07:47:26;1.37;;;1.27;;
4409;SDS011;2218;51.408;7.208;2023-08-07T07:50:04;1.00;;;0.90;;
4409;SDS011;2218;51.408;7.208;2023-08-07T07:52:33;1.30;;;1.20;;
4409;SDS011;2218;51.408;7.208;2023-08-07T07:55:00;1.80;;;1.30;;
4409;SDS011;2218;51.408;7.208;2023-08-07T07:57:29;1.73;;;1.20;;
4409;SDS011;2218;51.408;7.208;2023-08-07T07:59:55;1.20;;;1.10;;
4409;SDS011;2218;51.408;7.208;2023-08-07T08:02:22;1.10;;;1.00;;
4409;SDS011;2218;51.408;7.208;2023-08-07T08:04:50;1.37;;;1.27;;
4409;SDS011;2218;51.408;7.208;2023-08-07T08:07:17;1.23;;;1.13;;
4409;SDS011;2218;51.408;7.208;2023-08-07T08:09:44;1.10;;;1.00;;
4409;SDS011;2218;51.408;7.208;2023-08-07T08:12:12;2.70;;;1.30;;
4409;SDS011;2218;51.408;7.208;2023-08-07T08:14:40;1.13;;;1.03;;
4409;SDS011;2218;51.408;7.208;2023-08-07T08:17:07;1.30;;;1.20;;
4409;SDS011;2218;51.408;7.208;2023-08-07T08:19:34;1.00;;;1.00;;
4409;SDS011;2218;51.408;7.208;2023-08-07T08:22:01;1.30;;;1.10;;
4409;SDS011;2218;51.408;7.208;2023-08-07T08:24:28;1.70;;;1.60;;
4409;SDS011;2218;51.408;7.208;2023-08-07T08:26:56;1.40;;;1.30;;
4409;SDS011;2218;51.408;7.208;2023-08-07T08:29:23;1.43;;;1.33;;
4409;SDS011;2218;51.408;7.208;2023-08-07T08:31:53;0.90;;;0.90;;
4409;SDS011;2218;51.408;7.208;2023-08-07T08:34:20;1.90;;;1.47;;
4409;SDS011;2218;51.408;7.208;2023-08-07T08:36:47;1.20;;;1.10;;
4409;SDS011;2218;51.408;7.208;2023-08-07T08:39:14;3.67;;;1.00;;
4409;SDS011;2218;51.408;7.208;2023-08-07T08:41:41;1.30;;;0.87;;
4409;SDS011;2218;51.408;7.208;2023-08-07T08:44:13;1.20;;;1.10;;
4409;SDS011;2218;51.408;7.208;2023-08-07T08:46:43;2.17;;;1.33;;
4409;SDS011;2218;51.408;7.208;2023-08-07T08:49:15;1.50;;;1.10;;
4409;SDS011;2218;51.408;7.208;2023-08-07T08:51:46;1.43;;;1.00;;
4409;SDS011;2218;51.408;7.208;2023-08-07T08:54:13;2.73;;;1.40;;
4409;SDS011;2218;51.408;7.208;2023-08-07T08:56:41;1.10;;;1.00;;
4409;SDS011;2218;51.408;7.208;2023-08-07T08:59:09;1.47;;;1.00;;
4409;SDS011;2218;51.408;7.208;2023-08-07T09:01:36;2.00;;;0.93;;
4409;SDS011;2218;51.408;7.208;2023-08-07T09:04:04;1.27;;;0.83;;
4409;SDS011;2218;51.408;7.208;2023-08-07T09:06:33;1.93;;;0.80;;
4409;SDS011;2218;51.408;7.208;2023-08-07T09:09:01;0.93;;;0.83;;
4409;SDS011;2218;51.408;7.208;2023-08-07T09:11:29;1.33;;;0.90;;
4409;SDS011;2218;51.408;7.208;2023-08-07T09:13:58;2.07;;;0.80;;
4409;SDS011;2218;51.408;7.208;2023-08-07T09:16:28;0.80;;;0.77;;
4409;SDS011;2218;51.408;7.208;2023-08-07T09:18:56;1.00;;;0.70;;
4409;SDS011;2218;51.408;7.208;2023-08-07T09:21:23;1.07;;;0.80;;
4409;SDS011;2218;51.408;7.208;2023-08-07T09:23:53;0.93;;;0.80;;
4409;SDS011;2218;51.408;7.208;2023-08-07T09:26:21;2.17;;;0.60;;
4409;SDS011;2218;51.408;7.208;2023-08-07T09:28:50;8.60;;;0.83;;
4409;SDS011;2218;51.408;7.208;2023-08-07T09:31:19;3.43;;;0.80;;
4409;SDS011;2218;51.408;7.208;2023-08-07T09:33:47;5.93;;;0.73;;
4409;SDS011;2218;51.408;7.208;2023-08-07T09:36:15;4.70;;;0.70;;
4409;SDS011;2218;51.408;7.208;2023-08-07T09:38:43;3.10;;;0.90;;
4409;SDS011;2218;51.408;7.208;2023-08-07T09:41:18;0.87;;;0.80;;
4409;SDS011;2218;51.408;7.208;2023-08-07T09:43:45;0.97;;;0.87;;
4409;SDS011;2218;51.408;7.208;2023-08-07T09:46:12;1.90;;;1.00;;
4409;SDS011;2218;51.408;7.208;2023-08-07T09:48:39;1.13;;;0.90;;
4409;SDS011;2218;51.408;7.208;2023-08-07T09:51:08;9.10;;;0.93;;
4409;SDS011;2218;51.408;7.208;2023-08-07T09:53:35;4.67;;;0.90;;
4409;SDS011;2218;51.408;7.208;2023-08-07T09:56:02;7.30;;;0.83;;
4409;SDS011;2218;51.408;7.208;2023-08-07T09:58:31;1.13;;;0.87;;
4409;SDS011;2218;51.408;7.208;2023-08-07T10:00:59;0.70;;;0.70;;
4409;SDS011;2218;51.408;7.208;2023-08-07T10:03:29;0.70;;;0.60;;
4409;SDS011;2218;51.408;7.208;2023-08-07T10:05:57;0.80;;;0.60;;
4409;SDS011;2218;51.408;7.208;2023-08-07T10:08:25;1.87;;;0.80;;
4409;SDS011;2218;51.408;7.208;2023-08-07T10:10:52;0.80;;;0.63;;
4409;SDS011;2218;51.408;7.208;2023-08-07T10:13:19;1.50;;;0.70;;
4409;SDS011;2218;51.408;7.208;2023-08-07T10:15:50;1.33;;;1.10;;
4409;SDS011;2218;51.408;7.208;2023-08-07T10:18:17;2.50;;;0.80;;
4409;SDS011;2218;51.408;7.208;2023-08-07T10:20:46;0.80;;;0.80;;
4409;SDS011;2218;51.408;7.208;2023-08-07T10:23:13;1.07;;;0.97;;
4409;SDS011;2218;51.408;7.208;2023-08-07T10:25:43;2.97;;;1.00;;
4409;SDS011;2218;51.408;7.208;2023-08-07T10:28:13;1.53;;;0.80;;
4409;SDS011;2218;51.408;7.208;2023-08-07T10:30:45;3.33;;;0.97;;
4409;SDS011;2218;51.408;7.208;2023-08-07T10:33:15;1.63;;;0.83;;
4409;SDS011;2218;51.408;7.208;2023-08-07T10:35:45;0.97;;;0.87;;
4409;SDS011;2218;51.408;7.208;2023-08-07T10:38:14;6.53;;;0.77;;
4409;SDS011;2218;51.408;7.208;2023-08-07T10:41:00;1.10;;;1.00;;
4409;SDS011;2218;51.408;7.208;2023-08-07T10:43:29;0.80;;;0.77;;
4409;SDS011;2218;51.408;7.208;2023-08-07T10:46:02;0.80;;;0.70;;
4409;SDS011;2218;51.408;7.208;2023-08-07T10:48:38;1.20;;;0.80;;
4409;SDS011;2218;51.408;7.208;2023-08-07T10:51:07;2.80;;;0.70;;
4409;SDS011;2218;51.408;7.208;2023-08-07T10:53:35;0.80;;;0.70;;
4409;SDS011;2218;51.408;7.208;2023-08-07T10:56:07;1.20;;;1.10;;
4409;SDS011;2218;51.408;7.208;2023-08-07T10:58:37;1.00;;;0.90;;
4409;SDS011;2218;51.408;7.208;2023-08-07T11:04:09;0.90;;;0.80;;
4409;SDS011;2218;51.408;7.208;2023-08-07T11:06:39;0.87;;;0.87;;
4409;SDS011;2218;51.408;7.208;2023-08-07T11:09:07;1.23;;;0.83;;
4409;SDS011;2218;51.408;7.208;2023-08-07T11:11:36;1.10;;;0.97;;
4409;SDS011;2218;51.408;7.208;2023-08-07T11:14:05;0.80;;;0.70;;
4409;SDS011;2218;51.408;7.208;2023-08-07T11:16:32;1.53;;;1.00;;
4409;SDS011;2218;51.408;7.208;2023-08-07T11:19:00;0.93;;;0.90;;
4409;SDS011;2218;51.408;7.208;2023-08-07T11:21:30;7.70;;;1.53;;
4409;SDS011;2218;51.408;7.208;2023-08-07T11:23:58;1.50;;;1.00;;
4409;SDS011;2218;51.408;7.208;2023-08-07T11:26:25;0.80;;;0.73;;
4409;SDS011;2218;51.408;7.208;2023-08-07T11:28:53;1.43;;;0.70;;
4409;SDS011;2218;51.408;7.208;2023-08-07T11:31:21;3.00;;;1.10;;
4409;SDS011;2218;51.408;7.208;2023-08-07T11:33:50;1.37;;;0.90;;
4409;SDS011;2218;51.408;7.208;2023-08-07T11:36:17;0.87;;;0.87;;
4409;SDS011;2218;51.408;7.208;2023-08-07T11:38:46;2.30;;;0.80;;
4409;SDS011;2218;51.408;7.208;2023-08-07T11:41:13;1.30;;;0.90;;
4409;SDS011;2218;51.408;7.208;2023-08-07T11:43:42;2.70;;;0.80;;
4409;SDS011;2218;51.408;7.208;2023-08-07T11:46:10;1.30;;;0.90;;
4409;SDS011;2218;51.408;7.208;2023-08-07T11:48:39;1.00;;;0.90;;
4409;SDS011;2218;51.408;7.208;2023-08-07T11:51:09;0.93;;;0.80;;
4409;SDS011;2218;51.408;7.208;2023-08-07T11:53:37;2.80;;;0.80;;
4409;SDS011;2218;51.408;7.208;2023-08-07T11:56:07;6.70;;;0.97;;
4409;SDS011;2218;51.408;7.208;2023-08-07T11:58:39;2.67;;;0.87;;
4409;SDS011;2218;51.408;7.208;2023-08-07T12:01:09;1.00;;;0.90;;
4409;SDS011;2218;51.408;7.208;2023-08-07T12:03:38;2.30;;;0.70;;
4409;SDS011;2218;51.408;7.208;2023-08-07T12:06:09;1.50;;;1.00;;
4409;SDS011;2218;51.408;7.208;2023-08-07T12:08:36;0.90;;;0.90;;
4409;SDS011;2218;51.408;7.208;2023-08-07T12:11:05;1.20;;;1.00;;
4409;SDS011;2218;51.408;7.208;2023-08-07T12:13:37;1.40;;;0.70;;
4409;SDS011;2218;51.408;7.208;2023-08-07T12:16:05;0.80;;;0.70;;
4409;SDS011;2218;51.408;7.208;2023-08-07T12:18:34;0.70;;;0.60;;
4409;SDS011;2218;51.408;7.208;2023-08-07T12:21:04;2.40;;;0.73;;
4409;SDS011;2218;51.408;7.208;2023-08-07T12:23:34;0.90;;;0.80;;
4409;SDS011;2218;51.408;7.208;2023-08-07T12:26:02;1.30;;;0.70;;
4409;SDS011;2218;51.408;7.208;2023-08-07T12:28:33;1.37;;;1.10;;
4409;SDS011;2218;51.408;7.208;2023-08-07T12:31:01;4.73;;;0.80;;
4409;SDS011;2218;51.408;7.208;2023-08-07T12:33:28;1.00;;;0.90;;
4409;SDS011;2218;51.408;7.208;2023-08-07T12:35:56;2.47;;;0.77;;
4409;SDS011;2218;51.408;7.208;2023-08-07T12:38:24;1.00;;;0.90;;
4409;SDS011;2218;51.408;7.208;2023-08-07T12:40:51;2.53;;;1.03;;
4409;SDS011;2218;51.408;7.208;2023-08-07T12:43:18;0.93;;;0.80;;
4409;SDS011;2218;51.408;7.208;2023-08-07T12:45:46;4.40;;;0.90;;
4409;SDS011;2218;51.408;7.208;2023-08-07T12:48:14;1.23;;;1.03;;
4409;SDS011;2218;51.408;7.208;2023-08-07T12:50:41;1.00;;;0.90;;
4409;SDS011;2218;51.408;7.208;2023-08-07T12:53:08;1.43;;;1.00;;
4409;SDS011;2218;51.408;7.208;2023-08-07T12:55:35;1.10;;;0.70;;
4409;SDS011;2218;51.408;7.208;2023-08-07T12:58:02;1.77;;;0.80;;
4409;SDS011;2218;51.408;7.208;2023-08-07T13:00:29;0.80;;;0.63;;
4409;SDS011;2218;51.408;7.208;2023-08-07T13:02:57;1.20;;;0.90;;
4409;SDS011;2218;51.408;7.208;2023-08-07T13:05:24;0.80;;;0.70;;
4409;SDS011;2218;51.408;7.208;2023-08-07T13:07:51;1.20;;;0.80;;
4409;SDS011;2218;51.408;7.208;2023-08-07T13:10:21;0.80;;;0.77;;
4409;SDS011;2218;51.408;7.208;2023-08-07T13:12:48;3.40;;;1.07;;
4409;SDS011;2218;51.408;7.208;2023-08-07T13:15:16;1.37;;;0.90;;
4409;SDS011;2218;51.408;7.208;2023-08-07T13:17:44;0.90;;;0.80;;
4409;SDS011;2218;51.408;7.208;2023-08-07T13:20:13;0.83;;;0.70;;
4409;SDS011;2218;51.408;7.208;2023-08-07T13:22:40;4.77;;;1.20;;
4409;SDS011;2218;51.408;7.208;2023-08-07T13:25:09;1.13;;;1.00;;
4409;SDS011;2218;51.408;7.208;2023-08-07T13:27:38;1.60;;;1.00;;
4409;SDS011;2218;51.408;7.208;2023-08-07T13:30:07;1.17;;;0.80;;
4409;SDS011;2218;51.408;7.208;2023-08-07T13:32:35;0.80;;;0.70;;
4409;SDS011;2218;51.408;7.208;2023-08-07T13:35:02;4.93;;;1.00;;
4409;SDS011;2218;51.408;7.208;2023-08-07T13:37:32;1.33;;;0.97;;
4409;SDS011;2218;51.408;7.208;2023-08-07T13:39:59;3.43;;;1.00;;
4409;SDS011;2218;51.408;7.208;2023-08-07T13:42:28;2.60;;;0.70;;
4409;SDS011;2218;51.408;7.208;2023-08-07T13:44:55;3.50;;;1.03;;
4409;SDS011;2218;51.408;7.208;2023-08-07T13:47:22;1.00;;;0.80;;
4409;SDS011;2218;51.408;7.208;2023-08-07T13:49:51;3.00;;;0.90;;
4409;SDS011;2218;51.408;7.208;2023-08-07T13:52:19;1.10;;;0.83;;
4409;SDS011;2218;51.408;7.208;2023-08-07T13:54:47;1.23;;;1.00;;
4409;SDS011;2218;51.408;7.208;2023-08-07T13:57:14;6.47;;;0.83;;
4409;SDS011;2218;51.408;7.208;2023-08-07T13:59:41;3.37;;;1.27;;
4409;SDS011;2218;51.408;7.208;2023-08-07T14:02:09;1.40;;;0.83;;
4409;SDS011;2218;51.408;7.208;2023-08-07T14:04:36;2.30;;;0.70;;
4409;SDS011;2218;51.408;7.208;2023-08-07T14:07:03;1.07;;;0.87;;
4409;SDS011;2218;51.408;7.208;2023-08-07T14:09:31;1.20;;;1.10;;
4409;SDS011;2218;51.408;7.208;2023-08-07T14:11:59;1.00;;;0.70;;
4409;SDS011;2218;51.408;7.208;2023-08-07T14:14:26;2.00;;;0.80;;
4409;SDS011;2218;51.408;7.208;2023-08-07T14:16:53;1.43;;;0.90;;
4409;SDS011;2218;51.408;7.208;2023-08-07T14:19:22;2.10;;;0.70;;
4409;SDS011;2218;51.408;7.208;2023-08-07T14:21:49;5.10;;;0.80;;
4409;SDS011;2218;51.408;7.208;2023-08-07T14:24:17;2.20;;;0.80;;
4409;SDS011;2218;51.408;7.208;2023-08-07T14:26:44;1.20;;;0.90;;
4409;SDS011;2218;51.408;7.208;2023-08-07T14:29:13;1.03;;;0.90;;
4409;SDS011;2218;51.408;7.208;2023-08-07T14:31:40;4.20;;;0.70;;
4409;SDS011;2218;51.408;7.208;2023-08-07T14:34:07;1.30;;;1.10;;
4409;SDS011;2218;51.408;7.208;2023-08-07T14:36:34;1.30;;;0.80;;
4409;SDS011;2218;51.408;7.208;2023-08-07T14:39:01;2.97;;;0.80;;
4409;SDS011;2218;51.408;7.208;2023-08-07T14:41:28;0.87;;;0.80;;
4409;SDS011;2218;51.408;7.208;2023-08-07T14:43:55;0.80;;;0.73;;
4409;SDS011;2218;51.408;7.208;2023-08-07T14:46:23;1.90;;;1.00;;
4409;SDS011;2218;51.408;7.208;2023-08-07T14:48:50;0.97;;;0.70;;
4409;SDS011;2218;51.408;7.208;2023-08-07T14:51:17;0.80;;;0.80;;
4409;SDS011;2218;51.408;7.208;2023-08-07T14:53:44;1.00;;;0.53;;
4409;SDS011;2218;51.408;7.208;2023-08-07T14:56:11;1.90;;;1.17;;
4409;SDS011;2218;51.408;7.208;2023-08-07T14:58:38;1.53;;;0.80;;
4409;SDS011;2218;51.408;7.208;2023-08-07T15:01:05;0.93;;;0.60;;
4409;SDS011;2218;51.408;7.208;2023-08-07T15:03:35;0.90;;;0.80;;
4409;SDS011;2218;51.408;7.208;2023-08-07T15:06:02;0.70;;;0.60;;
4409;SDS011;2218;51.408;7.208;2023-08-07T15:08:29;0.80;;;0.70;;
4409;SDS011;2218;51.408;7.208;2023-08-07T15:10:56;0.80;;;0.70;;
4409;SDS011;2218;51.408;7.208;2023-08-07T15:13:23;1.83;;;0.90;;
4409;SDS011;2218;51.408;7.208;2023-08-07T15:15:50;0.90;;;0.70;;
4409;SDS011;2218;51.408;7.208;2023-08-07T15:18:17;1.10;;;1.00;;
4409;SDS011;2218;51.408;7.208;2023-08-07T15:20:47;1.67;;;0.90;;
4409;SDS011;2218;51.408;7.208;2023-08-07T15:23:14;0.80;;;0.70;;